sensor_id;sensor_type;location;lat;lon;timestamp;temperature;humidity
24412;DHT22;12544;46.760;15.942;2022-12-18T00:01:40;-0.10;99.90
24412;DHT22;12544;46.760;15.942;2022-12-18T00:04:11;-0.20;99.90
24412;DHT22;12544;46.760;15.942;2022-12-18T00:06:40;-0.10;99.90
24412;DHT22;12544;46.760;15.942;2022-12-18T00:12:15;-0.40;99.90
24412;DHT22;12544;46.760;15.942;2022-12-18T00:14:40;-0.40;99.90
24412;DHT22;12544;46.760;15.942;2022-12-18T00:17:06;-0.40;99.90
24412;DHT22;12544;46.760;15.942;2022-12-18T00:19:31;-0.60;99.90
24412;DHT22;12544;46.760;15.942;2022-12-18T00:21:57;-0.40;99.90
24412;DHT22;12544;46.760;15.942;2022-12-18T00:24:23;-0.40;99.90
24412;DHT22;12544;46.760;15.942;2022-12-18T00:26:49;-0.50;99.90
24412;DHT22;12544;46.760;15.942;2022-12-18T00:29:14;-0.40;99.90
24412;DHT22;12544;46.760;15.942;2022-12-18T00:31:41;-0.30;99.90
24412;DHT22;12544;46.760;15.942;2022-12-18T00:34:10;0.20;99.90
24412;DHT22;12544;46.760;15.942;2022-12-18T00:36:37;-0.20;99.90
24412;DHT22;12544;46.760;15.942;2022-12-18T00:39:04;-0.30;99.90
24412;DHT22;12544;46.760;15.942;2022-12-18T00:41:30;-0.30;99.90
24412;DHT22;12544;46.760;15.942;2022-12-18T00:44:23;-0.10;99.90
24412;DHT22;12544;46.760;15.942;2022-12-18T00:46:49;-0.30;99.90
24412;DHT22;12544;46.760;15.942;2022-12-18T00:49:17;-0.30;99.90
24412;DHT22;12544;46.760;15.942;2022-12-18T00:51:43;-0.30;99.90
24412;DHT22;12544;46.760;15.942;2022-12-18T00:54:09;-0.30;99.90
24412;DHT22;12544;46.760;15.942;2022-12-18T00:56:37;-0.30;99.90
24412;DHT22;12544;46.760;15.942;2022-12-18T00:59:03;-0.20;99.90
24412;DHT22;12544;46.760;15.942;2022-12-18T01:01:29;-0.20;99.90
24412;DHT22;12544;46.760;15.942;2022-12-18T01:03:55;0.00;99.90
24412;DHT22;12544;46.760;15.942;2022-12-18T01:06:21;-0.20;99.90
24412;DHT22;12544;46.760;15.942;2022-12-18T01:08:47;-0.10;99.90
24412;DHT22;12544;46.760;15.942;2022-12-18T01:11:16;0.60;99.90
24412;DHT22;12544;46.760;15.942;2022-12-18T01:13:42;0.00;99.90
24412;DHT22;12544;46.760;15.942;2022-12-18T01:16:16;0.10;99.90
24412;DHT22;12544;46.760;15.942;2022-12-18T01:18:42;0.10;99.90
24412;DHT22;12544;46.760;15.942;2022-12-18T01:21:09;0.30;99.90
24412;DHT22;12544;46.760;15.942;2022-12-18T01:23:35;0.20;99.90
24412;DHT22;12544;46.760;15.942;2022-12-18T01:26:09;1.10;99.90
24412;DHT22;12544;46.760;15.942;2022-12-18T01:28:36;0.20;99.90
24412;DHT22;12544;46.760;15.942;2022-12-18T01:31:23;0.60;99.90
24412;DHT22;12544;46.760;15.942;2022-12-18T01:33:50;0.20;99.90
24412;DHT22;12544;46.760;15.942;2022-12-18T01:36:21;0.20;99.90
24412;DHT22;12544;46.760;15.942;2022-12-18T01:38:47;0.20;99.90
24412;DHT22;12544;46.760;15.942;2022-12-18T01:41:15;0.30;99.90
24412;DHT22;12544;46.760;15.942;2022-12-18T01:43:56;0.40;99.90
24412;DHT22;12544;46.760;15.942;2022-12-18T01:46:28;0.30;99.90
24412;DHT22;12544;46.760;15.942;2022-12-18T01:48:57;0.40;99.90
24412;DHT22;12544;46.760;15.942;2022-12-18T01:51:23;0.60;99.90
24412;DHT22;12544;46.760;15.942;2022-12-18T01:53:49;0.40;99.90
24412;DHT22;12544;46.760;15.942;2022-12-18T01:56:18;0.40;99.90
24412;DHT22;12544;46.760;15.942;2022-12-18T01:59:00;0.40;99.90
24412;DHT22;12544;46.760;15.942;2022-12-18T02:01:29;0.40;99.90
24412;DHT22;12544;46.760;15.942;2022-12-18T02:03:56;0.60;99.90
24412;DHT22;12544;46.760;15.942;2022-12-18T02:06:33;0.50;99.90
24412;DHT22;12544;46.760;15.942;2022-12-18T02:09:15;0.40;99.90
24412;DHT22;12544;46.760;15.942;2022-12-18T02:14:28;0.20;99.90
24412;DHT22;12544;46.760;15.942;2022-12-18T02:17:07;0.20;99.90
24412;DHT22;12544;46.760;15.942;2022-12-18T02:20:06;0.20;99.90
24412;DHT22;12544;46.760;15.942;2022-12-18T02:22:44;0.10;99.90
24412;DHT22;12544;46.760;15.942;2022-12-18T02:28:15;0.10;99.90
24412;DHT22;12544;46.760;15.942;2022-12-18T02:30:42;0.00;99.90
24412;DHT22;12544;46.760;15.942;2022-12-18T02:33:09;0.00;99.90
24412;DHT22;12544;46.760;15.942;2022-12-18T02:35:36;0.10;99.90
24412;DHT22;12544;46.760;15.942;2022-12-18T02:38:03;0.10;99.90
24412;DHT22;12544;46.760;15.942;2022-12-18T02:40:31;0.00;99.90
24412;DHT22;12544;46.760;15.942;2022-12-18T02:43:13;0.30;99.90
24412;DHT22;12544;46.760;15.942;2022-12-18T02:46:00;0.10;99.90
24412;DHT22;12544;46.760;15.942;2022-12-18T02:48:29;0.00;99.90
24412;DHT22;12544;46.760;15.942;2022-12-18T02:51:19;0.30;99.90
24412;DHT22;12544;46.760;15.942;2022-12-18T02:54:02;0.00;99.90
24412;DHT22;12544;46.760;15.942;2022-12-18T02:56:57;-0.10;99.90
24412;DHT22;12544;46.760;15.942;2022-12-18T02:59:39;0.00;99.90
24412;DHT22;12544;46.760;15.942;2022-12-18T03:02:24;0.00;99.90
24412;DHT22;12544;46.760;15.942;2022-12-18T03:07:48;0.00;99.90
24412;DHT22;12544;46.760;15.942;2022-12-18T03:10:19;0.10;99.90
24412;DHT22;12544;46.760;15.942;2022-12-18T03:12:52;0.10;99.90
24412;DHT22;12544;46.760;15.942;2022-12-18T03:17:54;0.20;99.90
24412;DHT22;12544;46.760;15.942;2022-12-18T03:20:23;0.40;99.90
24412;DHT22;12544;46.760;15.942;2022-12-18T03:22:55;0.30;99.90
24412;DHT22;12544;46.760;15.942;2022-12-18T03:25:22;0.30;99.90
24412;DHT22;12544;46.760;15.942;2022-12-18T03:27:53;0.20;99.90
24412;DHT22;12544;46.760;15.942;2022-12-18T03:30:20;0.20;99.90
24412;DHT22;12544;46.760;15.942;2022-12-18T03:32:56;0.20;99.90
24412;DHT22;12544;46.760;15.942;2022-12-18T03:35:28;0.40;99.90
24412;DHT22;12544;46.760;15.942;2022-12-18T03:37:54;0.80;99.90
24412;DHT22;12544;46.760;15.942;2022-12-18T03:40:30;0.00;99.90
24412;DHT22;12544;46.760;15.942;2022-12-18T03:43:09;-0.10;99.90
24412;DHT22;12544;46.760;15.942;2022-12-18T03:45:43;0.00;99.90
24412;DHT22;12544;46.760;15.942;2022-12-18T03:48:23;-0.10;99.90
24412;DHT22;12544;46.760;15.942;2022-12-18T03:53:41;-0.20;99.90
24412;DHT22;12544;46.760;15.942;2022-12-18T03:56:10;-0.20;99.90
24412;DHT22;12544;46.760;15.942;2022-12-18T03:58:37;-0.20;99.90
24412;DHT22;12544;46.760;15.942;2022-12-18T04:01:09;0.40;99.90
24412;DHT22;12544;46.760;15.942;2022-12-18T04:03:39;-0.20;99.90
24412;DHT22;12544;46.760;15.942;2022-12-18T04:06:21;-0.30;99.90
24412;DHT22;12544;46.760;15.942;2022-12-18T04:08:47;-0.30;99.90
24412;DHT22;12544;46.760;15.942;2022-12-18T04:11:13;-0.10;99.90
24412;DHT22;12544;46.760;15.942;2022-12-18T04:13:39;-0.30;99.90
24412;DHT22;12544;46.760;15.942;2022-12-18T04:16:05;-0.20;99.90
24412;DHT22;12544;46.760;15.942;2022-12-18T04:18:31;-0.20;99.90
24412;DHT22;12544;46.760;15.942;2022-12-18T04:20:56;-0.20;99.90
24412;DHT22;12544;46.760;15.942;2022-12-18T04:23:22;-0.10;99.90
24412;DHT22;12544;46.760;15.942;2022-12-18T04:25:48;-0.10;99.90
24412;DHT22;12544;46.760;15.942;2022-12-18T04:28:13;0.20;99.90
24412;DHT22;12544;46.760;15.942;2022-12-18T04:30:39;-0.30;99.90
24412;DHT22;12544;46.760;15.942;2022-12-18T04:33:09;-0.30;99.90
24412;DHT22;12544;46.760;15.942;2022-12-18T04:35:35;-0.30;99.90
24412;DHT22;12544;46.760;15.942;2022-12-18T04:38:29;-0.40;99.90
24412;DHT22;12544;46.760;15.942;2022-12-18T04:40:54;-0.50;99.90
24412;DHT22;12544;46.760;15.942;2022-12-18T04:43:20;-0.20;99.90
24412;DHT22;12544;46.760;15.942;2022-12-18T04:45:46;-0.40;99.90
24412;DHT22;12544;46.760;15.942;2022-12-18T04:48:11;-0.40;99.90
24412;DHT22;12544;46.760;15.942;2022-12-18T04:50:37;-0.40;99.90
24412;DHT22;12544;46.760;15.942;2022-12-18T04:53:03;-0.40;99.90
24412;DHT22;12544;46.760;15.942;2022-12-18T04:55:46;-0.20;99.90
24412;DHT22;12544;46.760;15.942;2022-12-18T04:58:11;-0.20;99.90
24412;DHT22;12544;46.760;15.942;2022-12-18T05:00:37;0.10;99.90
24412;DHT22;12544;46.760;15.942;2022-12-18T05:03:03;-0.30;99.90
24412;DHT22;12544;46.760;15.942;2022-12-18T05:05:28;-0.40;99.90
24412;DHT22;12544;46.760;15.942;2022-12-18T05:07:54;-0.30;99.90
24412;DHT22;12544;46.760;15.942;2022-12-18T05:10:19;-0.60;99.90
24412;DHT22;12544;46.760;15.942;2022-12-18T05:12:45;-0.50;99.90
24412;DHT22;12544;46.760;15.942;2022-12-18T05:15:30;-0.70;99.90
24412;DHT22;12544;46.760;15.942;2022-12-18T05:17:57;-0.60;99.90
24412;DHT22;12544;46.760;15.942;2022-12-18T05:20:23;-0.60;99.90
24412;DHT22;12544;46.760;15.942;2022-12-18T05:22:50;-0.60;99.90
24412;DHT22;12544;46.760;15.942;2022-12-18T05:25:16;-0.40;99.90
24412;DHT22;12544;46.760;15.942;2022-12-18T05:27:42;-0.80;99.90
24412;DHT22;12544;46.760;15.942;2022-12-18T05:30:08;-0.80;99.90
24412;DHT22;12544;46.760;15.942;2022-12-18T05:32:35;-0.70;99.90
24412;DHT22;12544;46.760;15.942;2022-12-18T05:35:01;-0.60;99.90
24412;DHT22;12544;46.760;15.942;2022-12-18T05:37:26;-0.70;99.90
24412;DHT22;12544;46.760;15.942;2022-12-18T05:39:52;-0.50;99.90
24412;DHT22;12544;46.760;15.942;2022-12-18T05:42:17;-0.50;99.90
24412;DHT22;12544;46.760;15.942;2022-12-18T05:44:43;-0.60;99.90
24412;DHT22;12544;46.760;15.942;2022-12-18T05:47:09;-0.60;99.90
24412;DHT22;12544;46.760;15.942;2022-12-18T05:49:35;-0.60;99.90
24412;DHT22;12544;46.760;15.942;2022-12-18T05:52:01;-0.20;99.90
24412;DHT22;12544;46.760;15.942;2022-12-18T05:54:28;-0.40;99.90
24412;DHT22;12544;46.760;15.942;2022-12-18T05:56:53;-0.40;99.90
24412;DHT22;12544;46.760;15.942;2022-12-18T05:59:19;-0.40;99.90
24412;DHT22;12544;46.760;15.942;2022-12-18T06:01:45;-0.20;99.90
24412;DHT22;12544;46.760;15.942;2022-12-18T06:04:11;-0.30;99.90
24412;DHT22;12544;46.760;15.942;2022-12-18T06:06:37;-0.10;99.90
24412;DHT22;12544;46.760;15.942;2022-12-18T06:09:03;-0.10;99.90
24412;DHT22;12544;46.760;15.942;2022-12-18T06:11:34;-0.20;99.90
24412;DHT22;12544;46.760;15.942;2022-12-18T06:14:00;0.30;99.90
24412;DHT22;12544;46.760;15.942;2022-12-18T06:16:27;-0.10;99.90
24412;DHT22;12544;46.760;15.942;2022-12-18T06:19:00;0.10;99.90
24412;DHT22;12544;46.760;15.942;2022-12-18T06:21:27;-0.10;99.90
24412;DHT22;12544;46.760;15.942;2022-12-18T06:23:53;0.10;99.90
24412;DHT22;12544;46.760;15.942;2022-12-18T06:26:19;0.10;99.90
24412;DHT22;12544;46.760;15.942;2022-12-18T06:28:44;0.00;99.90
24412;DHT22;12544;46.760;15.942;2022-12-18T06:31:10;0.00;99.90
24412;DHT22;12544;46.760;15.942;2022-12-18T06:33:36;0.70;99.90
24412;DHT22;12544;46.760;15.942;2022-12-18T06:36:07;0.30;99.90
24412;DHT22;12544;46.760;15.942;2022-12-18T06:38:35;0.00;99.90
24412;DHT22;12544;46.760;15.942;2022-12-18T06:41:05;-0.10;99.90
24412;DHT22;12544;46.760;15.942;2022-12-18T06:43:31;0.00;99.90
24412;DHT22;12544;46.760;15.942;2022-12-18T06:46:00;0.50;99.90
24412;DHT22;12544;46.760;15.942;2022-12-18T06:48:26;-0.10;99.90
24412;DHT22;12544;46.760;15.942;2022-12-18T06:50:52;0.10;99.90
24412;DHT22;12544;46.760;15.942;2022-12-18T06:53:18;0.10;99.90
24412;DHT22;12544;46.760;15.942;2022-12-18T06:55:43;0.00;99.90
24412;DHT22;12544;46.760;15.942;2022-12-18T06:58:09;-0.10;99.90
24412;DHT22;12544;46.760;15.942;2022-12-18T07:00:35;0.10;99.90
24412;DHT22;12544;46.760;15.942;2022-12-18T07:03:00;0.00;99.90
24412;DHT22;12544;46.760;15.942;2022-12-18T07:05:26;0.00;99.90
24412;DHT22;12544;46.760;15.942;2022-12-18T07:07:51;0.00;99.90
24412;DHT22;12544;46.760;15.942;2022-12-18T07:10:17;0.10;99.90
24412;DHT22;12544;46.760;15.942;2022-12-18T07:12:43;0.20;99.90
24412;DHT22;12544;46.760;15.942;2022-12-18T07:15:09;0.20;99.90
24412;DHT22;12544;46.760;15.942;2022-12-18T07:17:35;0.00;99.90
24412;DHT22;12544;46.760;15.942;2022-12-18T07:20:00;0.10;99.90
24412;DHT22;12544;46.760;15.942;2022-12-18T07:22:26;0.20;99.90
24412;DHT22;12544;46.760;15.942;2022-12-18T07:24:52;0.00;99.90
24412;DHT22;12544;46.760;15.942;2022-12-18T07:27:18;0.50;99.90
24412;DHT22;12544;46.760;15.942;2022-12-18T07:29:45;0.30;99.90
24412;DHT22;12544;46.760;15.942;2022-12-18T07:32:10;0.10;99.90
24412;DHT22;12544;46.760;15.942;2022-12-18T07:34:36;0.20;99.90
24412;DHT22;12544;46.760;15.942;2022-12-18T07:37:02;0.10;99.90
24412;DHT22;12544;46.760;15.942;2022-12-18T07:39:27;0.10;99.90
24412;DHT22;12544;46.760;15.942;2022-12-18T07:41:53;0.20;99.90
24412;DHT22;12544;46.760;15.942;2022-12-18T07:44:37;0.40;99.90
24412;DHT22;12544;46.760;15.942;2022-12-18T07:47:03;0.40;99.90
24412;DHT22;12544;46.760;15.942;2022-12-18T07:49:28;0.40;99.90
24412;DHT22;12544;46.760;15.942;2022-12-18T07:51:57;0.40;99.90
24412;DHT22;12544;46.760;15.942;2022-12-18T07:54:24;0.50;99.90
24412;DHT22;12544;46.760;15.942;2022-12-18T07:56:50;0.50;99.90
24412;DHT22;12544;46.760;15.942;2022-12-18T07:59:16;0.50;99.90
24412;DHT22;12544;46.760;15.942;2022-12-18T08:01:42;0.60;99.90
24412;DHT22;12544;46.760;15.942;2022-12-18T08:04:08;0.60;99.90
24412;DHT22;12544;46.760;15.942;2022-12-18T08:06:33;0.70;99.90
24412;DHT22;12544;46.760;15.942;2022-12-18T08:08:59;0.70;99.90
24412;DHT22;12544;46.760;15.942;2022-12-18T08:11:26;0.40;99.90
24412;DHT22;12544;46.760;15.942;2022-12-18T08:13:53;0.40;99.90
24412;DHT22;12544;46.760;15.942;2022-12-18T08:16:19;0.50;99.90
24412;DHT22;12544;46.760;15.942;2022-12-18T08:18:45;0.60;99.90
24412;DHT22;12544;46.760;15.942;2022-12-18T08:21:19;0.40;99.90
24412;DHT22;12544;46.760;15.942;2022-12-18T08:23:46;0.50;99.90
24412;DHT22;12544;46.760;15.942;2022-12-18T08:26:12;0.50;99.90
24412;DHT22;12544;46.760;15.942;2022-12-18T08:28:38;0.50;99.90
24412;DHT22;12544;46.760;15.942;2022-12-18T08:31:04;0.40;99.90
24412;DHT22;12544;46.760;15.942;2022-12-18T08:33:30;0.70;99.90
24412;DHT22;12544;46.760;15.942;2022-12-18T08:35:56;0.40;99.90
24412;DHT22;12544;46.760;15.942;2022-12-18T08:38:23;0.30;99.90
24412;DHT22;12544;46.760;15.942;2022-12-18T08:41:07;0.20;99.90
24412;DHT22;12544;46.760;15.942;2022-12-18T08:43:33;0.10;99.90
24412;DHT22;12544;46.760;15.942;2022-12-18T08:46:19;0.30;99.90
24412;DHT22;12544;46.760;15.942;2022-12-18T08:48:46;0.30;99.90
24412;DHT22;12544;46.760;15.942;2022-12-18T08:51:11;0.40;99.90
24412;DHT22;12544;46.760;15.942;2022-12-18T08:53:37;0.40;99.90
24412;DHT22;12544;46.760;15.942;2022-12-18T08:56:23;1.00;99.90
24412;DHT22;12544;46.760;15.942;2022-12-18T08:58:52;0.30;99.90
24412;DHT22;12544;46.760;15.942;2022-12-18T09:01:18;0.30;99.90
24412;DHT22;12544;46.760;15.942;2022-12-18T09:03:44;0.40;99.90
24412;DHT22;12544;46.760;15.942;2022-12-18T09:06:14;0.30;99.90
24412;DHT22;12544;46.760;15.942;2022-12-18T09:08:40;0.30;99.90
24412;DHT22;12544;46.760;15.942;2022-12-18T09:11:14;0.60;99.90
24412;DHT22;12544;46.760;15.942;2022-12-18T09:13:40;0.40;99.90
24412;DHT22;12544;46.760;15.942;2022-12-18T09:16:06;0.60;99.90
24412;DHT22;12544;46.760;15.942;2022-12-18T09:18:32;0.50;99.90
24412;DHT22;12544;46.760;15.942;2022-12-18T09:20:57;0.50;99.90
24412;DHT22;12544;46.760;15.942;2022-12-18T09:23:23;0.50;99.90
24412;DHT22;12544;46.760;15.942;2022-12-18T09:25:48;0.80;99.90
24412;DHT22;12544;46.760;15.942;2022-12-18T09:28:17;0.60;99.90
24412;DHT22;12544;46.760;15.942;2022-12-18T09:30:49;0.50;99.90
24412;DHT22;12544;46.760;15.942;2022-12-18T09:33:16;0.70;99.90
24412;DHT22;12544;46.760;15.942;2022-12-18T09:35:43;0.70;99.90
24412;DHT22;12544;46.760;15.942;2022-12-18T09:38:17;0.70;99.90
24412;DHT22;12544;46.760;15.942;2022-12-18T09:40:47;0.70;99.90
24412;DHT22;12544;46.760;15.942;2022-12-18T09:43:24;0.70;99.90
24412;DHT22;12544;46.760;15.942;2022-12-18T09:45:55;0.70;99.90
24412;DHT22;12544;46.760;15.942;2022-12-18T09:48:27;0.80;99.90
24412;DHT22;12544;46.760;15.942;2022-12-18T09:50:58;0.80;99.90
24412;DHT22;12544;46.760;15.942;2022-12-18T09:53:29;0.80;99.90
24412;DHT22;12544;46.760;15.942;2022-12-18T09:55:57;1.30;99.90
24412;DHT22;12544;46.760;15.942;2022-12-18T09:58:42;0.90;99.90
24412;DHT22;12544;46.760;15.942;2022-12-18T10:01:18;0.90;99.90
24412;DHT22;12544;46.760;15.942;2022-12-18T10:03:46;1.00;99.90
24412;DHT22;12544;46.760;15.942;2022-12-18T10:06:35;0.90;99.90
24412;DHT22;12544;46.760;15.942;2022-12-18T10:09:20;0.90;99.90
24412;DHT22;12544;46.760;15.942;2022-12-18T10:17:35;0.90;99.90
24412;DHT22;12544;46.760;15.942;2022-12-18T10:23:07;0.80;99.90
24412;DHT22;12544;46.760;15.942;2022-12-18T10:28:25;0.90;99.90
24412;DHT22;12544;46.760;15.942;2022-12-18T10:30:52;0.90;99.90
24412;DHT22;12544;46.760;15.942;2022-12-18T10:33:21;0.90;99.90
24412;DHT22;12544;46.760;15.942;2022-12-18T10:35:50;1.00;99.90
24412;DHT22;12544;46.760;15.942;2022-12-18T10:43:32;0.80;99.90
24412;DHT22;12544;46.760;15.942;2022-12-18T10:51:29;0.90;99.90
24412;DHT22;12544;46.760;15.942;2022-12-18T10:54:05;0.90;99.90
24412;DHT22;12544;46.760;15.942;2022-12-18T10:56:34;0.80;99.90
24412;DHT22;12544;46.760;15.942;2022-12-18T10:59:04;1.30;99.90
24412;DHT22;12544;46.760;15.942;2022-12-18T11:01:57;1.00;99.90
24412;DHT22;12544;46.760;15.942;2022-12-18T11:04:24;0.80;99.90
24412;DHT22;12544;46.760;15.942;2022-12-18T11:07:07;0.80;99.90
24412;DHT22;12544;46.760;15.942;2022-12-18T11:09:35;0.80;99.90
24412;DHT22;12544;46.760;15.942;2022-12-18T11:14:52;0.70;99.90
24412;DHT22;12544;46.760;15.942;2022-12-18T11:20:07;0.70;99.90
24412;DHT22;12544;46.760;15.942;2022-12-18T11:22:42;0.80;99.90
24412;DHT22;12544;46.760;15.942;2022-12-18T11:27:37;0.60;99.90
24412;DHT22;12544;46.760;15.942;2022-12-18T11:30:25;0.60;99.90
24412;DHT22;12544;46.760;15.942;2022-12-18T11:38:21;0.80;99.90
24412;DHT22;12544;46.760;15.942;2022-12-18T11:41:02;0.80;99.90
24412;DHT22;12544;46.760;15.942;2022-12-18T11:43:53;0.90;99.90
24412;DHT22;12544;46.760;15.942;2022-12-18T11:46:46;0.90;99.90
24412;DHT22;12544;46.760;15.942;2022-12-18T11:49:15;1.00;99.90
24412;DHT22;12544;46.760;15.942;2022-12-18T11:54:40;1.00;99.90
24412;DHT22;12544;46.760;15.942;2022-12-18T12:08:58;1.00;99.90
24412;DHT22;12544;46.760;15.942;2022-12-18T12:11:40;0.90;99.90
24412;DHT22;12544;46.760;15.942;2022-12-18T12:26:10;0.80;99.90
24412;DHT22;12544;46.760;15.942;2022-12-18T12:31:27;0.70;99.90
24412;DHT22;12544;46.760;15.942;2022-12-18T12:39:34;0.70;99.90
24412;DHT22;12544;46.760;15.942;2022-12-18T12:42:04;0.70;99.90
24412;DHT22;12544;46.760;15.942;2022-12-18T12:45:11;0.70;99.90
24412;DHT22;12544;46.760;15.942;2022-12-18T12:47:42;0.80;99.90
24412;DHT22;12544;46.760;15.942;2022-12-18T12:50:15;0.80;99.90
24412;DHT22;12544;46.760;15.942;2022-12-18T12:52:46;0.80;99.90
24412;DHT22;12544;46.760;15.942;2022-12-18T12:55:19;0.90;99.90
24412;DHT22;12544;46.760;15.942;2022-12-18T12:58:31;0.90;99.90
24412;DHT22;12544;46.760;15.942;2022-12-18T13:00:52;0.90;99.90
24412;DHT22;12544;46.760;15.942;2022-12-18T13:04:01;0.90;99.90
24412;DHT22;12544;46.760;15.942;2022-12-18T13:06:49;0.90;99.90
24412;DHT22;12544;46.760;15.942;2022-12-18T13:09:20;1.00;99.90
24412;DHT22;12544;46.760;15.942;2022-12-18T13:11:47;1.00;99.90
24412;DHT22;12544;46.760;15.942;2022-12-18T13:14:38;1.00;99.90
24412;DHT22;12544;46.760;15.942;2022-12-18T13:19:39;1.00;99.90
24412;DHT22;12544;46.760;15.942;2022-12-18T13:22:25;1.00;99.90
24412;DHT22;12544;46.760;15.942;2022-12-18T13:24:53;1.00;99.90
24412;DHT22;12544;46.760;15.942;2022-12-18T13:41:00;1.10;99.90
24412;DHT22;12544;46.760;15.942;2022-12-18T13:46:20;1.10;99.90
24412;DHT22;12544;46.760;15.942;2022-12-18T13:48:52;1.10;99.90
24412;DHT22;12544;46.760;15.942;2022-12-18T13:51:19;1.10;99.90
24412;DHT22;12544;46.760;15.942;2022-12-18T13:54:02;1.20;99.90
24412;DHT22;12544;46.760;15.942;2022-12-18T13:56:31;1.20;99.90
24412;DHT22;12544;46.760;15.942;2022-12-18T14:04:22;1.20;99.90
24412;DHT22;12544;46.760;15.942;2022-12-18T14:07:24;1.30;99.90
24412;DHT22;12544;46.760;15.942;2022-12-18T14:09:44;1.20;99.90
24412;DHT22;12544;46.760;15.942;2022-12-18T14:15:02;1.20;99.90
24412;DHT22;12544;46.760;15.942;2022-12-18T14:17:28;1.30;99.90
24412;DHT22;12544;46.760;15.942;2022-12-18T14:19:53;1.30;99.90
24412;DHT22;12544;46.760;15.942;2022-12-18T14:22:32;1.30;99.90
24412;DHT22;12544;46.760;15.942;2022-12-18T14:27:40;1.40;99.90
24412;DHT22;12544;46.760;15.942;2022-12-18T14:30:38;1.30;99.90
24412;DHT22;12544;46.760;15.942;2022-12-18T14:33:05;1.40;99.90
24412;DHT22;12544;46.760;15.942;2022-12-18T14:35:33;1.30;99.90
24412;DHT22;12544;46.760;15.942;2022-12-18T14:38:25;1.30;99.90
24412;DHT22;12544;46.760;15.942;2022-12-18T14:41:06;1.40;99.90
24412;DHT22;12544;46.760;15.942;2022-12-18T14:43:36;1.30;99.90
24412;DHT22;12544;46.760;15.942;2022-12-18T14:46:04;1.30;99.90
24412;DHT22;12544;46.760;15.942;2022-12-18T14:48:36;1.40;99.90
24412;DHT22;12544;46.760;15.942;2022-12-18T14:54:14;1.50;99.90
24412;DHT22;12544;46.760;15.942;2022-12-18T14:56:47;1.50;99.90
24412;DHT22;12544;46.760;15.942;2022-12-18T14:59:24;1.60;99.90
24412;DHT22;12544;46.760;15.942;2022-12-18T15:04:33;1.60;99.90
24412;DHT22;12544;46.760;15.942;2022-12-18T15:09:31;1.80;99.90
24412;DHT22;12544;46.760;15.942;2022-12-18T15:11:58;1.70;99.90
24412;DHT22;12544;46.760;15.942;2022-12-18T15:14:41;1.70;99.90
24412;DHT22;12544;46.760;15.942;2022-12-18T15:17:23;1.70;99.90
24412;DHT22;12544;46.760;15.942;2022-12-18T15:19:52;1.70;99.90
24412;DHT22;12544;46.760;15.942;2022-12-18T15:22:26;1.70;99.90
24412;DHT22;12544;46.760;15.942;2022-12-18T15:24:54;1.70;99.90
24412;DHT22;12544;46.760;15.942;2022-12-18T15:27:31;1.80;99.90
24412;DHT22;12544;46.760;15.942;2022-12-18T15:32:34;1.80;99.90
24412;DHT22;12544;46.760;15.942;2022-12-18T15:35:22;1.70;99.90
24412;DHT22;12544;46.760;15.942;2022-12-18T15:37:50;1.70;99.90
24412;DHT22;12544;46.760;15.942;2022-12-18T15:40:21;1.80;99.90
24412;DHT22;12544;46.760;15.942;2022-12-18T15:42:48;1.70;99.90
24412;DHT22;12544;46.760;15.942;2022-12-18T15:45:33;1.80;99.90
24412;DHT22;12544;46.760;15.942;2022-12-18T15:47:59;1.70;99.90
24412;DHT22;12544;46.760;15.942;2022-12-18T15:50:25;1.60;99.90
24412;DHT22;12544;46.760;15.942;2022-12-18T15:52:53;1.60;99.90
24412;DHT22;12544;46.760;15.942;2022-12-18T15:55:23;1.70;99.90
24412;DHT22;12544;46.760;15.942;2022-12-18T15:58:09;1.50;99.90
24412;DHT22;12544;46.760;15.942;2022-12-18T16:00:36;1.40;99.90
24412;DHT22;12544;46.760;15.942;2022-12-18T16:03:03;1.50;99.90
24412;DHT22;12544;46.760;15.942;2022-12-18T16:05:30;1.60;99.90
24412;DHT22;12544;46.760;15.942;2022-12-18T16:07:56;1.40;99.90
24412;DHT22;12544;46.760;15.942;2022-12-18T16:10:22;1.50;99.90
24412;DHT22;12544;46.760;15.942;2022-12-18T16:12:49;1.40;99.90
24412;DHT22;12544;46.760;15.942;2022-12-18T16:15:15;1.50;99.90
24412;DHT22;12544;46.760;15.942;2022-12-18T16:17:42;1.40;99.90
24412;DHT22;12544;46.760;15.942;2022-12-18T16:20:26;1.40;99.90
24412;DHT22;12544;46.760;15.942;2022-12-18T16:22:53;1.40;99.90
24412;DHT22;12544;46.760;15.942;2022-12-18T16:25:27;1.20;99.90
24412;DHT22;12544;46.760;15.942;2022-12-18T16:27:54;1.30;99.90
24412;DHT22;12544;46.760;15.942;2022-12-18T16:30:23;1.40;99.90
24412;DHT22;12544;46.760;15.942;2022-12-18T16:32:49;1.40;99.90
24412;DHT22;12544;46.760;15.942;2022-12-18T16:35:16;1.40;99.90
24412;DHT22;12544;46.760;15.942;2022-12-18T16:37:42;1.40;99.90
24412;DHT22;12544;46.760;15.942;2022-12-18T16:40:11;1.30;99.90
24412;DHT22;12544;46.760;15.942;2022-12-18T16:42:38;1.40;99.90
24412;DHT22;12544;46.760;15.942;2022-12-18T16:45:06;1.40;99.90
24412;DHT22;12544;46.760;15.942;2022-12-18T16:47:32;1.40;99.90
24412;DHT22;12544;46.760;15.942;2022-12-18T16:50:00;1.40;99.90
24412;DHT22;12544;46.760;15.942;2022-12-18T16:52:26;1.30;99.90
24412;DHT22;12544;46.760;15.942;2022-12-18T16:54:52;1.40;99.90
24412;DHT22;12544;46.760;15.942;2022-12-18T16:57:19;1.30;99.90
24412;DHT22;12544;46.760;15.942;2022-12-18T16:59:47;1.40;99.90
24412;DHT22;12544;46.760;15.942;2022-12-18T17:02:18;1.40;99.90
24412;DHT22;12544;46.760;15.942;2022-12-18T17:04:44;1.50;99.90
24412;DHT22;12544;46.760;15.942;2022-12-18T17:07:12;1.40;99.90
24412;DHT22;12544;46.760;15.942;2022-12-18T17:09:38;1.50;99.90
24412;DHT22;12544;46.760;15.942;2022-12-18T17:12:04;1.50;99.90
24412;DHT22;12544;46.760;15.942;2022-12-18T17:14:31;1.40;99.90
24412;DHT22;12544;46.760;15.942;2022-12-18T17:16:57;1.40;99.90
24412;DHT22;12544;46.760;15.942;2022-12-18T17:19:56;1.50;99.90
24412;DHT22;12544;46.760;15.942;2022-12-18T17:22:21;1.50;99.90
24412;DHT22;12544;46.760;15.942;2022-12-18T17:24:51;1.50;99.90
24412;DHT22;12544;46.760;15.942;2022-12-18T17:27:17;1.40;99.90
24412;DHT22;12544;46.760;15.942;2022-12-18T17:29:43;1.40;99.90
24412;DHT22;12544;46.760;15.942;2022-12-18T17:32:11;1.40;99.90
24412;DHT22;12544;46.760;15.942;2022-12-18T17:34:37;1.30;99.90
24412;DHT22;12544;46.760;15.942;2022-12-18T17:37:02;1.40;99.90
24412;DHT22;12544;46.760;15.942;2022-12-18T17:39:28;1.50;99.90
24412;DHT22;12544;46.760;15.942;2022-12-18T17:41:55;1.50;99.90
24412;DHT22;12544;46.760;15.942;2022-12-18T17:44:21;1.50;99.90
24412;DHT22;12544;46.760;15.942;2022-12-18T17:46:47;1.50;99.90
24412;DHT22;12544;46.760;15.942;2022-12-18T17:49:15;1.50;99.90
24412;DHT22;12544;46.760;15.942;2022-12-18T17:51:41;1.50;99.90
24412;DHT22;12544;46.760;15.942;2022-12-18T17:54:08;1.60;99.90
24412;DHT22;12544;46.760;15.942;2022-12-18T17:56:33;1.60;99.90